Terminal Aerodrome Forecast
Issued by NWS Melbourne, FL

Home | Current Version | Previous Version | Text Only | Print | Product List | Glossary On
Versions: 1 2 3 4 5 6 7 8 9 10 11 12 13 14 15 16 17 18 19 20 21 22 23 24 25
000
FTUS42 KMLB 212300
TAFMCO
TAF
KMCO 212330Z 2200/2224 VRB02KT P6SM -RA VCTS SCT030CB BKN040 BKN120
     FM220400 17004KT 6SM -SHRA BR SCT010 BKN020 OVC040
     FM221500 18009KT P6SM VCSH SCT020 BKN050 BKN100=

USA.gov is the U.S. government's official web portal to all federal, state and local government web resources and services.